Las Americas, Dominican Republic

9:42 AM AST en Agosto 24, 2016 (GMT -0400)
Las Americas International | | Change Station

Alt 59 ft 18.43 °N, 69.67 °W | Updated 42 minutes ago

Scattered Clouds
Nubes dispersas
82 ° F
Sensación térmica 91 ° F
N
9
Viento Variable Viento desde Norte

Hoy
Alta -- | Baja -- ° F
--% Posibilidad de precipitaciones
Ayer
Alta -- | Baja -- ° F
Precip. -- pul
Presión 29.89 pul
Visibilidad 6.2 Millas
Nubes Baja 1800 ft
Nubes dispersas 2000 ft
Índice de calor 91 ° F
Punto de rocío 77 ° F
Humedad 84%
Precipitaciones 0.00 pul
Espesor de la nieve No disponible.
6:22 AM 6:58 PM
Gibosa menguante, 57% visible
METAR MDSD 241300Z 35008KT 9999 FEW018CB SCT020 28/25 Q1012 CB/S
Presión 29.89 pul
Visibilidad 6.2 Millas
Nubes Baja 1800 ft
Nubes dispersas 2000 ft
Índice de calor 91 ° F
Punto de rocío 77 ° F
Humedad 84%
Precipitaciones 0.00 pul
Espesor de la nieve No disponible.
6:22 AM 6:58 PM
Gibosa menguante, 57% visible
METAR MDSD 241300Z 35008KT 9999 FEW018CB SCT020 28/25 Q1012 CB/S

10-Day Weather Forecast

No radar image for this location.
×

Almanac

Astronomía

Aug. 24, 2016 Salida Puesta
Hora real
Crepúsculo civil
Crepúsculo náutico
Crepúsculo astronómico
Luna
Horas de luz
Horas de luz
Tomorrow will be .
, % of the Moon is Illuminated

Extremos de hoy

Máximos del país Bajas del país

Community

WunderPhotos

Upload Photos

1,934,598 ¡fotos cargadas!

WunderBlog® & News

Nearby

Calidad del aire

  Calidad del aire Índice AQ Contaminante
Not available.

Grosos de nieve

Estación Profundido Altura

Actividad de terremotos

Ciudad Distance Mag. Tiempo y dato
Magnitud mínima muestra es 2,5.

Temperaturas de aguas costeras

Lugar Temperatura

Stations

Estaciones meteorológicas cercanas

Ubicación de la estación Temp. Vientos helados Punto de rocío Humedad Viento Precip. Alt Actualizado Tipo